sensor_id;sensor_type;location;lat;lon;timestamp;temperature;humidity
24410;DHT22;12543;53.364;-1.504;2022-08-21T00:01:50;17.30;98.30
24410;DHT22;12543;53.364;-1.504;2022-08-21T00:04:17;17.40;98.70
24410;DHT22;12543;53.364;-1.504;2022-08-21T00:06:49;17.30;99.50
24410;DHT22;12543;53.364;-1.504;2022-08-21T00:09:17;17.40;99.70
24410;DHT22;12543;53.364;-1.504;2022-08-21T00:11:45;17.30;99.20
24410;DHT22;12543;53.364;-1.504;2022-08-21T00:14:13;17.30;99.10
24410;DHT22;12543;53.364;-1.504;2022-08-21T00:16:41;17.30;99.80
24410;DHT22;12543;53.364;-1.504;2022-08-21T00:19:08;17.30;99.30
24410;DHT22;12543;53.364;-1.504;2022-08-21T00:21:36;17.30;99.20
24410;DHT22;12543;53.364;-1.504;2022-08-21T00:24:04;17.20;99.20
24410;DHT22;12543;53.364;-1.504;2022-08-21T00:26:33;17.20;99.20
24410;DHT22;12543;53.364;-1.504;2022-08-21T00:29:03;17.20;99.30
24410;DHT22;12543;53.364;-1.504;2022-08-21T00:31:30;17.20;99.10
24410;DHT22;12543;53.364;-1.504;2022-08-21T00:33:58;17.20;99.50
24410;DHT22;12543;53.364;-1.504;2022-08-21T00:36:27;17.20;99.10
24410;DHT22;12543;53.364;-1.504;2022-08-21T00:38:55;17.20;99.70
24410;DHT22;12543;53.364;-1.504;2022-08-21T00:41:22;17.10;99.60
24410;DHT22;12543;53.364;-1.504;2022-08-21T00:44:06;17.10;99.90
24410;DHT22;12543;53.364;-1.504;2022-08-21T00:46:33;17.10;99.50
24410;DHT22;12543;53.364;-1.504;2022-08-21T00:49:00;17.10;99.90
24410;DHT22;12543;53.364;-1.504;2022-08-21T00:51:37;17.10;99.60
24410;DHT22;12543;53.364;-1.504;2022-08-21T00:54:05;17.00;99.50
24410;DHT22;12543;53.364;-1.504;2022-08-21T00:56:42;17.00;99.60
24410;DHT22;12543;53.364;-1.504;2022-08-21T00:59:10;17.00;99.60
24410;DHT22;12543;53.364;-1.504;2022-08-21T01:01:37;17.00;99.90
24410;DHT22;12543;53.364;-1.504;2022-08-21T01:04:04;17.00;99.90
24410;DHT22;12543;53.364;-1.504;2022-08-21T01:06:31;16.90;99.90
24410;DHT22;12543;53.364;-1.504;2022-08-21T01:08:59;16.90;99.90
24410;DHT22;12543;53.364;-1.504;2022-08-21T01:11:26;16.90;99.50
24410;DHT22;12543;53.364;-1.504;2022-08-21T01:13:54;16.90;99.50
24410;DHT22;12543;53.364;-1.504;2022-08-21T01:16:22;16.90;99.60
24410;DHT22;12543;53.364;-1.504;2022-08-21T01:18:50;16.80;99.40
24410;DHT22;12543;53.364;-1.504;2022-08-21T01:21:27;16.80;99.60
24410;DHT22;12543;53.364;-1.504;2022-08-21T01:23:56;16.80;99.70
24410;DHT22;12543;53.364;-1.504;2022-08-21T01:26:31;16.80;99.90
24410;DHT22;12543;53.364;-1.504;2022-08-21T01:31:39;16.70;99.90
24410;DHT22;12543;53.364;-1.504;2022-08-21T01:34:08;16.70;99.90
24410;DHT22;12543;53.364;-1.504;2022-08-21T01:36:36;16.70;99.90
24410;DHT22;12543;53.364;-1.504;2022-08-21T01:39:04;16.70;99.70
24410;DHT22;12543;53.364;-1.504;2022-08-21T01:41:31;16.60;99.70
24410;DHT22;12543;53.364;-1.504;2022-08-21T01:43:58;16.60;99.70
24410;DHT22;12543;53.364;-1.504;2022-08-21T01:46:25;16.60;99.90
24410;DHT22;12543;53.364;-1.504;2022-08-21T01:48:53;16.60;99.90
24410;DHT22;12543;53.364;-1.504;2022-08-21T01:51:20;16.60;99.90
24410;DHT22;12543;53.364;-1.504;2022-08-21T01:53:47;16.60;99.90
24410;DHT22;12543;53.364;-1.504;2022-08-21T01:56:15;16.60;99.90
24410;DHT22;12543;53.364;-1.504;2022-08-21T01:58:44;16.60;99.90
24410;DHT22;12543;53.364;-1.504;2022-08-21T02:01:12;16.50;99.90
24410;DHT22;12543;53.364;-1.504;2022-08-21T02:03:39;16.50;99.90
24410;DHT22;12543;53.364;-1.504;2022-08-21T02:06:07;16.50;99.90
24410;DHT22;12543;53.364;-1.504;2022-08-21T02:08:38;16.50;99.90
24410;DHT22;12543;53.364;-1.504;2022-08-21T02:11:05;16.50;99.90
24410;DHT22;12543;53.364;-1.504;2022-08-21T02:13:32;16.40;99.90
24410;DHT22;12543;53.364;-1.504;2022-08-21T02:15:59;16.40;99.90
24410;DHT22;12543;53.364;-1.504;2022-08-21T02:18:26;16.40;99.90
24410;DHT22;12543;53.364;-1.504;2022-08-21T02:20:53;16.40;99.90
24410;DHT22;12543;53.364;-1.504;2022-08-21T02:23:23;16.30;99.90
24410;DHT22;12543;53.364;-1.504;2022-08-21T02:26:04;16.30;99.90
24410;DHT22;12543;53.364;-1.504;2022-08-21T02:28:31;16.30;99.90
24410;DHT22;12543;53.364;-1.504;2022-08-21T02:30:59;16.30;99.90
24410;DHT22;12543;53.364;-1.504;2022-08-21T02:33:27;16.30;99.90
24410;DHT22;12543;53.364;-1.504;2022-08-21T02:35:55;16.30;99.90
24410;DHT22;12543;53.364;-1.504;2022-08-21T02:38:27;16.20;99.90
24410;DHT22;12543;53.364;-1.504;2022-08-21T02:40:55;16.30;99.90
24410;DHT22;12543;53.364;-1.504;2022-08-21T02:43:23;16.20;99.90
24410;DHT22;12543;53.364;-1.504;2022-08-21T02:45:52;16.20;99.90
24410;DHT22;12543;53.364;-1.504;2022-08-21T02:48:22;16.20;99.90
24410;DHT22;12543;53.364;-1.504;2022-08-21T02:50:58;16.20;99.90
24410;DHT22;12543;53.364;-1.504;2022-08-21T02:53:26;16.20;99.90
24410;DHT22;12543;53.364;-1.504;2022-08-21T02:55:53;16.20;99.90
24410;DHT22;12543;53.364;-1.504;2022-08-21T02:58:24;16.20;99.90
24410;DHT22;12543;53.364;-1.504;2022-08-21T03:00:51;16.20;99.90
24410;DHT22;12543;53.364;-1.504;2022-08-21T03:03:19;16.10;99.90
24410;DHT22;12543;53.364;-1.504;2022-08-21T03:05:48;16.10;99.90
24410;DHT22;12543;53.364;-1.504;2022-08-21T03:08:16;16.20;99.90
24410;DHT22;12543;53.364;-1.504;2022-08-21T03:10:46;16.20;99.90
24410;DHT22;12543;53.364;-1.504;2022-08-21T03:13:14;16.10;99.90
24410;DHT22;12543;53.364;-1.504;2022-08-21T03:15:41;16.10;99.90
24410;DHT22;12543;53.364;-1.504;2022-08-21T03:18:10;16.10;99.90
24410;DHT22;12543;53.364;-1.504;2022-08-21T03:20:39;16.20;99.90
24410;DHT22;12543;53.364;-1.504;2022-08-21T03:23:07;16.20;99.90
24410;DHT22;12543;53.364;-1.504;2022-08-21T03:25:43;16.10;99.90
24410;DHT22;12543;53.364;-1.504;2022-08-21T03:28:15;16.20;99.90
24410;DHT22;12543;53.364;-1.504;2022-08-21T03:30:44;16.20;99.90
24410;DHT22;12543;53.364;-1.504;2022-08-21T03:33:12;16.10;99.90
24410;DHT22;12543;53.364;-1.504;2022-08-21T03:35:43;16.10;99.90
24410;DHT22;12543;53.364;-1.504;2022-08-21T03:38:11;16.10;99.90
24410;DHT22;12543;53.364;-1.504;2022-08-21T03:40:41;16.10;99.90
24410;DHT22;12543;53.364;-1.504;2022-08-21T03:43:08;16.10;99.90
24410;DHT22;12543;53.364;-1.504;2022-08-21T03:45:37;16.10;99.90
24410;DHT22;12543;53.364;-1.504;2022-08-21T03:48:05;16.10;99.90
24410;DHT22;12543;53.364;-1.504;2022-08-21T03:50:36;16.10;99.90
24410;DHT22;12543;53.364;-1.504;2022-08-21T03:53:12;16.20;99.90
24410;DHT22;12543;53.364;-1.504;2022-08-21T03:55:45;16.10;99.90
24410;DHT22;12543;53.364;-1.504;2022-08-21T03:58:15;16.10;99.90
24410;DHT22;12543;53.364;-1.504;2022-08-21T04:00:48;16.10;99.90
24410;DHT22;12543;53.364;-1.504;2022-08-21T04:03:16;16.10;99.90
24410;DHT22;12543;53.364;-1.504;2022-08-21T04:05:43;16.10;99.90
24410;DHT22;12543;53.364;-1.504;2022-08-21T04:08:14;16.10;99.90
24410;DHT22;12543;53.364;-1.504;2022-08-21T04:10:42;16.20;99.90
24410;DHT22;12543;53.364;-1.504;2022-08-21T04:13:10;16.10;99.90
24410;DHT22;12543;53.364;-1.504;2022-08-21T04:15:37;16.10;99.90
24410;DHT22;12543;53.364;-1.504;2022-08-21T04:18:05;16.10;99.90
24410;DHT22;12543;53.364;-1.504;2022-08-21T04:20:32;16.10;99.90
24410;DHT22;12543;53.364;-1.504;2022-08-21T04:23:00;16.10;99.90
24410;DHT22;12543;53.364;-1.504;2022-08-21T04:25:34;16.00;99.90
24410;DHT22;12543;53.364;-1.504;2022-08-21T04:28:27;16.00;99.90
24410;DHT22;12543;53.364;-1.504;2022-08-21T04:30:57;16.10;99.90
24410;DHT22;12543;53.364;-1.504;2022-08-21T04:33:25;16.00;99.90
24410;DHT22;12543;53.364;-1.504;2022-08-21T04:35:52;16.00;99.90
24410;DHT22;12543;53.364;-1.504;2022-08-21T04:38:19;16.00;99.90
24410;DHT22;12543;53.364;-1.504;2022-08-21T04:40:47;16.10;99.90
24410;DHT22;12543;53.364;-1.504;2022-08-21T04:43:15;16.00;99.90
24410;DHT22;12543;53.364;-1.504;2022-08-21T04:45:45;16.00;99.90
24410;DHT22;12543;53.364;-1.504;2022-08-21T04:48:14;16.00;99.90
24410;DHT22;12543;53.364;-1.504;2022-08-21T04:55:56;15.90;99.90
24410;DHT22;12543;53.364;-1.504;2022-08-21T04:58:25;15.90;99.90
24410;DHT22;12543;53.364;-1.504;2022-08-21T05:00:55;16.00;99.90
24410;DHT22;12543;53.364;-1.504;2022-08-21T05:03:23;16.00;99.90
24410;DHT22;12543;53.364;-1.504;2022-08-21T05:05:50;16.00;99.90
24410;DHT22;12543;53.364;-1.504;2022-08-21T05:08:19;16.00;99.90
24410;DHT22;12543;53.364;-1.504;2022-08-21T05:10:48;16.00;99.90
24410;DHT22;12543;53.364;-1.504;2022-08-21T05:13:15;15.90;99.90
24410;DHT22;12543;53.364;-1.504;2022-08-21T05:15:42;15.90;99.90
24410;DHT22;12543;53.364;-1.504;2022-08-21T05:18:10;15.90;99.90
24410;DHT22;12543;53.364;-1.504;2022-08-21T05:20:37;15.90;99.90
24410;DHT22;12543;53.364;-1.504;2022-08-21T05:23:12;15.90;99.90
24410;DHT22;12543;53.364;-1.504;2022-08-21T05:25:40;15.90;99.90
24410;DHT22;12543;53.364;-1.504;2022-08-21T05:28:08;15.90;99.90
24410;DHT22;12543;53.364;-1.504;2022-08-21T05:30:36;15.90;99.90
24410;DHT22;12543;53.364;-1.504;2022-08-21T05:33:04;15.90;99.90
24410;DHT22;12543;53.364;-1.504;2022-08-21T05:35:33;16.00;99.90
24410;DHT22;12543;53.364;-1.504;2022-08-21T05:38:02;16.00;99.90
24410;DHT22;12543;53.364;-1.504;2022-08-21T05:40:31;16.00;99.90
24410;DHT22;12543;53.364;-1.504;2022-08-21T05:42:59;16.00;99.90
24410;DHT22;12543;53.364;-1.504;2022-08-21T05:45:32;16.00;99.90
24410;DHT22;12543;53.364;-1.504;2022-08-21T05:48:21;16.00;99.90
24410;DHT22;12543;53.364;-1.504;2022-08-21T05:50:50;16.00;99.90
24410;DHT22;12543;53.364;-1.504;2022-08-21T05:53:19;16.00;99.90
24410;DHT22;12543;53.364;-1.504;2022-08-21T05:55:48;16.00;99.90
24410;DHT22;12543;53.364;-1.504;2022-08-21T05:58:18;16.00;99.90
24410;DHT22;12543;53.364;-1.504;2022-08-21T06:00:47;16.00;99.90
24410;DHT22;12543;53.364;-1.504;2022-08-21T06:03:18;16.10;99.90
24410;DHT22;12543;53.364;-1.504;2022-08-21T06:05:46;16.10;99.90
24410;DHT22;12543;53.364;-1.504;2022-08-21T06:08:19;16.10;99.90
24410;DHT22;12543;53.364;-1.504;2022-08-21T06:10:48;16.10;99.90
24410;DHT22;12543;53.364;-1.504;2022-08-21T06:13:17;16.10;99.90
24410;DHT22;12543;53.364;-1.504;2022-08-21T06:15:45;16.10;99.90
24410;DHT22;12543;53.364;-1.504;2022-08-21T06:18:13;16.10;99.90
24410;DHT22;12543;53.364;-1.504;2022-08-21T06:20:41;16.10;99.90
24410;DHT22;12543;53.364;-1.504;2022-08-21T06:23:08;16.10;99.90
24410;DHT22;12543;53.364;-1.504;2022-08-21T06:25:35;16.20;99.90
24410;DHT22;12543;53.364;-1.504;2022-08-21T06:28:08;16.20;99.90
24410;DHT22;12543;53.364;-1.504;2022-08-21T06:30:38;16.20;99.90
24410;DHT22;12543;53.364;-1.504;2022-08-21T06:33:06;16.20;99.90
24410;DHT22;12543;53.364;-1.504;2022-08-21T06:35:34;16.20;99.90
24410;DHT22;12543;53.364;-1.504;2022-08-21T06:38:01;16.30;99.90
24410;DHT22;12543;53.364;-1.504;2022-08-21T06:40:29;16.30;99.90
24410;DHT22;12543;53.364;-1.504;2022-08-21T06:43:09;16.30;99.90
24410;DHT22;12543;53.364;-1.504;2022-08-21T06:45:41;16.30;99.90
24410;DHT22;12543;53.364;-1.504;2022-08-21T06:48:08;16.30;99.90
24410;DHT22;12543;53.364;-1.504;2022-08-21T06:50:39;16.30;99.90
24410;DHT22;12543;53.364;-1.504;2022-08-21T06:53:11;16.30;99.90
24410;DHT22;12543;53.364;-1.504;2022-08-21T06:55:39;16.30;99.90
24410;DHT22;12543;53.364;-1.504;2022-08-21T06:58:07;16.40;99.90
24410;DHT22;12543;53.364;-1.504;2022-08-21T07:00:39;16.30;99.90
24410;DHT22;12543;53.364;-1.504;2022-08-21T07:03:06;16.40;99.90
24410;DHT22;12543;53.364;-1.504;2022-08-21T07:05:33;16.40;99.90
24410;DHT22;12543;53.364;-1.504;2022-08-21T07:08:01;16.40;99.90
24410;DHT22;12543;53.364;-1.504;2022-08-21T07:10:28;16.40;99.90
24410;DHT22;12543;53.364;-1.504;2022-08-21T07:12:58;16.50;99.90
24410;DHT22;12543;53.364;-1.504;2022-08-21T07:15:30;16.50;99.90
24410;DHT22;12543;53.364;-1.504;2022-08-21T07:18:01;16.50;99.90
24410;DHT22;12543;53.364;-1.504;2022-08-21T07:20:30;16.50;99.90
24410;DHT22;12543;53.364;-1.504;2022-08-21T07:23:00;16.60;99.90
24410;DHT22;12543;53.364;-1.504;2022-08-21T07:25:28;16.60;99.90
24410;DHT22;12543;53.364;-1.504;2022-08-21T07:27:55;16.60;99.90
24410;DHT22;12543;53.364;-1.504;2022-08-21T07:30:23;16.70;99.90
24410;DHT22;12543;53.364;-1.504;2022-08-21T07:32:53;16.70;99.90
24410;DHT22;12543;53.364;-1.504;2022-08-21T07:35:22;16.70;99.90
24410;DHT22;12543;53.364;-1.504;2022-08-21T07:37:49;16.80;99.90
24410;DHT22;12543;53.364;-1.504;2022-08-21T07:40:17;16.80;99.90
24410;DHT22;12543;53.364;-1.504;2022-08-21T07:42:45;16.90;99.90
24410;DHT22;12543;53.364;-1.504;2022-08-21T07:45:14;16.90;99.90
24410;DHT22;12543;53.364;-1.504;2022-08-21T07:47:42;17.00;99.90
24410;DHT22;12543;53.364;-1.504;2022-08-21T07:50:12;17.10;99.90
24410;DHT22;12543;53.364;-1.504;2022-08-21T07:52:40;17.10;99.90
24410;DHT22;12543;53.364;-1.504;2022-08-21T07:55:09;17.20;99.90
24410;DHT22;12543;53.364;-1.504;2022-08-21T07:57:38;17.20;99.90
24410;DHT22;12543;53.364;-1.504;2022-08-21T08:00:08;17.30;99.90
24410;DHT22;12543;53.364;-1.504;2022-08-21T08:02:40;17.40;99.90
24410;DHT22;12543;53.364;-1.504;2022-08-21T08:05:10;17.40;99.90
24410;DHT22;12543;53.364;-1.504;2022-08-21T08:07:38;17.40;99.90
24410;DHT22;12543;53.364;-1.504;2022-08-21T08:10:07;17.50;99.90
24410;DHT22;12543;53.364;-1.504;2022-08-21T08:12:40;17.50;99.90
24410;DHT22;12543;53.364;-1.504;2022-08-21T08:15:11;17.50;99.90
24410;DHT22;12543;53.364;-1.504;2022-08-21T08:17:38;17.60;99.90
24410;DHT22;12543;53.364;-1.504;2022-08-21T08:20:10;17.60;99.90
24410;DHT22;12543;53.364;-1.504;2022-08-21T08:22:39;17.50;99.90
24410;DHT22;12543;53.364;-1.504;2022-08-21T08:25:07;17.60;99.90
24410;DHT22;12543;53.364;-1.504;2022-08-21T08:27:36;17.60;99.90
24410;DHT22;12543;53.364;-1.504;2022-08-21T08:30:04;17.70;99.90
24410;DHT22;12543;53.364;-1.504;2022-08-21T08:32:32;17.70;99.90
24410;DHT22;12543;53.364;-1.504;2022-08-21T08:35:00;17.70;99.90
24410;DHT22;12543;53.364;-1.504;2022-08-21T08:37:27;17.80;99.90
24410;DHT22;12543;53.364;-1.504;2022-08-21T08:40:00;17.80;99.90
24410;DHT22;12543;53.364;-1.504;2022-08-21T08:42:34;17.80;99.90
24410;DHT22;12543;53.364;-1.504;2022-08-21T08:47:36;18.00;99.90
24410;DHT22;12543;53.364;-1.504;2022-08-21T08:50:09;18.00;99.90
24410;DHT22;12543;53.364;-1.504;2022-08-21T08:52:45;18.10;99.90
24410;DHT22;12543;53.364;-1.504;2022-08-21T08:55:21;18.20;99.90
24410;DHT22;12543;53.364;-1.504;2022-08-21T08:57:53;18.20;99.90
24410;DHT22;12543;53.364;-1.504;2022-08-21T09:00:23;18.30;99.90
24410;DHT22;12543;53.364;-1.504;2022-08-21T09:02:54;18.40;99.90
24410;DHT22;12543;53.364;-1.504;2022-08-21T09:05:40;18.50;99.90
24410;DHT22;12543;53.364;-1.504;2022-08-21T09:13:28;18.80;99.90
24410;DHT22;12543;53.364;-1.504;2022-08-21T09:16:40;18.90;99.90
24410;DHT22;12543;53.364;-1.504;2022-08-21T09:25:23;19.40;99.90
24410;DHT22;12543;53.364;-1.504;2022-08-21T09:27:52;19.60;99.90
24410;DHT22;12543;53.364;-1.504;2022-08-21T09:30:25;19.80;99.90
24410;DHT22;12543;53.364;-1.504;2022-08-21T09:32:53;20.10;99.90
24410;DHT22;12543;53.364;-1.504;2022-08-21T09:35:21;20.50;99.90
24410;DHT22;12543;53.364;-1.504;2022-08-21T09:40:40;21.00;99.90
24410;DHT22;12543;53.364;-1.504;2022-08-21T09:45:40;21.40;99.90
24410;DHT22;12543;53.364;-1.504;2022-08-21T09:48:23;21.60;99.90
24410;DHT22;12543;53.364;-1.504;2022-08-21T09:50:53;21.90;99.90
24410;DHT22;12543;53.364;-1.504;2022-08-21T09:53:31;22.20;99.90
24410;DHT22;12543;53.364;-1.504;2022-08-21T09:56:04;22.30;99.90
24410;DHT22;12543;53.364;-1.504;2022-08-21T09:58:51;22.40;99.90
24410;DHT22;12543;53.364;-1.504;2022-08-21T10:01:24;22.50;99.90
24410;DHT22;12543;53.364;-1.504;2022-08-21T10:04:03;22.70;99.90
24410;DHT22;12543;53.364;-1.504;2022-08-21T10:06:31;23.20;99.90
24410;DHT22;12543;53.364;-1.504;2022-08-21T10:11:31;24.40;99.90
24410;DHT22;12543;53.364;-1.504;2022-08-21T10:14:13;25.00;99.90
24410;DHT22;12543;53.364;-1.504;2022-08-21T10:25:21;26.00;99.90
24410;DHT22;12543;53.364;-1.504;2022-08-21T10:30:52;26.40;99.90
24410;DHT22;12543;53.364;-1.504;2022-08-21T10:36:12;27.30;99.90
24410;DHT22;12543;53.364;-1.504;2022-08-21T10:44:53;28.50;99.90
24410;DHT22;12543;53.364;-1.504;2022-08-21T10:47:24;28.70;99.90
24410;DHT22;12543;53.364;-1.504;2022-08-21T10:52:51;29.30;99.90
24410;DHT22;12543;53.364;-1.504;2022-08-21T10:55:35;29.50;99.90
24410;DHT22;12543;53.364;-1.504;2022-08-21T10:58:29;29.80;99.90
24410;DHT22;12543;53.364;-1.504;2022-08-21T11:04:01;29.80;99.90
24410;DHT22;12543;53.364;-1.504;2022-08-21T11:06:32;29.50;98.00
24410;DHT22;12543;53.364;-1.504;2022-08-21T11:09:13;29.10;97.50
24410;DHT22;12543;53.364;-1.504;2022-08-21T11:11:47;28.90;96.80
24410;DHT22;12543;53.364;-1.504;2022-08-21T11:17:19;28.70;97.50
24410;DHT22;12543;53.364;-1.504;2022-08-21T11:19:53;28.60;97.10
24410;DHT22;12543;53.364;-1.504;2022-08-21T11:22:28;28.40;96.60
24410;DHT22;12543;53.364;-1.504;2022-08-21T11:25:09;28.20;97.10
24410;DHT22;12543;53.364;-1.504;2022-08-21T11:30:21;27.60;97.10
24410;DHT22;12543;53.364;-1.504;2022-08-21T11:38:33;26.70;96.60
24410;DHT22;12543;53.364;-1.504;2022-08-21T11:41:44;26.40;97.40
24410;DHT22;12543;53.364;-1.504;2022-08-21T11:50:12;26.50;98.50
24410;DHT22;12543;53.364;-1.504;2022-08-21T11:55:36;27.70;99.20
24410;DHT22;12543;53.364;-1.504;2022-08-21T11:58:11;28.10;98.40
24410;DHT22;12543;53.364;-1.504;2022-08-21T12:00:51;28.20;96.90
24410;DHT22;12543;53.364;-1.504;2022-08-21T12:06:01;28.20;95.80
24410;DHT22;12543;53.364;-1.504;2022-08-21T12:08:42;28.40;96.10
24410;DHT22;12543;53.364;-1.504;2022-08-21T12:14:00;28.70;96.10
24410;DHT22;12543;53.364;-1.504;2022-08-21T12:16:46;28.60;94.30
24410;DHT22;12543;53.364;-1.504;2022-08-21T12:19:34;28.50;94.70
24410;DHT22;12543;53.364;-1.504;2022-08-21T12:24:40;28.10;94.40
24410;DHT22;12543;53.364;-1.504;2022-08-21T12:29:50;27.50;94.90
24410;DHT22;12543;53.364;-1.504;2022-08-21T12:35:07;27.00;94.80
24410;DHT22;12543;53.364;-1.504;2022-08-21T12:37:59;26.80;94.50
24410;DHT22;12543;53.364;-1.504;2022-08-21T12:40:41;26.60;94.70
24410;DHT22;12543;53.364;-1.504;2022-08-21T12:43:28;26.50;95.00
24410;DHT22;12543;53.364;-1.504;2022-08-21T12:45:56;26.40;94.30
24410;DHT22;12543;53.364;-1.504;2022-08-21T12:48:33;26.50;95.10
24410;DHT22;12543;53.364;-1.504;2022-08-21T12:51:11;26.80;96.00
24410;DHT22;12543;53.364;-1.504;2022-08-21T12:53:47;27.20;96.40
24410;DHT22;12543;53.364;-1.504;2022-08-21T12:56:18;27.60;95.50
24410;DHT22;12543;53.364;-1.504;2022-08-21T12:58:53;27.80;95.40
24410;DHT22;12543;53.364;-1.504;2022-08-21T13:01:27;27.90;95.60
24410;DHT22;12543;53.364;-1.504;2022-08-21T13:03:59;27.90;95.10
24410;DHT22;12543;53.364;-1.504;2022-08-21T13:06:37;27.80;94.00
24410;DHT22;12543;53.364;-1.504;2022-08-21T13:09:08;27.60;92.90
24410;DHT22;12543;53.364;-1.504;2022-08-21T13:11:37;27.30;93.70
24410;DHT22;12543;53.364;-1.504;2022-08-21T13:16:47;27.00;93.50
24410;DHT22;12543;53.364;-1.504;2022-08-21T13:19:17;27.00;93.80
24410;DHT22;12543;53.364;-1.504;2022-08-21T13:21:50;27.00;94.40
24410;DHT22;12543;53.364;-1.504;2022-08-21T13:24:32;27.00;94.40
24410;DHT22;12543;53.364;-1.504;2022-08-21T13:27:27;26.90;93.80
24410;DHT22;12543;53.364;-1.504;2022-08-21T13:32:35;26.90;93.70
24410;DHT22;12543;53.364;-1.504;2022-08-21T13:35:10;27.00;94.40
24410;DHT22;12543;53.364;-1.504;2022-08-21T13:37:40;26.90;94.00
24410;DHT22;12543;53.364;-1.504;2022-08-21T13:40:14;26.90;93.20
24410;DHT22;12543;53.364;-1.504;2022-08-21T13:42:44;26.80;92.20
24410;DHT22;12543;53.364;-1.504;2022-08-21T13:45:29;26.50;91.20
24410;DHT22;12543;53.364;-1.504;2022-08-21T13:48:00;26.40;91.70
24410;DHT22;12543;53.364;-1.504;2022-08-21T13:50:35;26.20;92.10
24410;DHT22;12543;53.364;-1.504;2022-08-21T13:53:05;26.00;90.80
24410;DHT22;12543;53.364;-1.504;2022-08-21T13:55:39;25.90;91.10
24410;DHT22;12543;53.364;-1.504;2022-08-21T13:58:09;25.80;90.90
24410;DHT22;12543;53.364;-1.504;2022-08-21T14:00:48;25.70;91.50
24410;DHT22;12543;53.364;-1.504;2022-08-21T14:03:30;25.60;91.60
24410;DHT22;12543;53.364;-1.504;2022-08-21T14:05:57;25.50;91.30
24410;DHT22;12543;53.364;-1.504;2022-08-21T14:08:38;25.40;91.70
24410;DHT22;12543;53.364;-1.504;2022-08-21T14:11:11;25.40;91.40
24410;DHT22;12543;53.364;-1.504;2022-08-21T14:13:44;25.30;91.80
24410;DHT22;12543;53.364;-1.504;2022-08-21T14:16:20;25.20;92.30
24410;DHT22;12543;53.364;-1.504;2022-08-21T14:21:36;25.00;91.00
24410;DHT22;12543;53.364;-1.504;2022-08-21T14:24:40;24.90;91.50
24410;DHT22;12543;53.364;-1.504;2022-08-21T14:27:06;24.80;91.00
24410;DHT22;12543;53.364;-1.504;2022-08-21T14:29:38;24.60;91.30
24410;DHT22;12543;53.364;-1.504;2022-08-21T14:32:22;24.60;91.90
24410;DHT22;12543;53.364;-1.504;2022-08-21T14:34:52;24.40;91.70
24410;DHT22;12543;53.364;-1.504;2022-08-21T14:37:21;24.30;92.00
24410;DHT22;12543;53.364;-1.504;2022-08-21T14:39:49;24.30;92.00
24410;DHT22;12543;53.364;-1.504;2022-08-21T14:42:16;24.30;91.90
24410;DHT22;12543;53.364;-1.504;2022-08-21T14:44:43;24.20;92.10
24410;DHT22;12543;53.364;-1.504;2022-08-21T14:47:10;24.20;91.90
24410;DHT22;12543;53.364;-1.504;2022-08-21T14:49:38;24.10;91.70
24410;DHT22;12543;53.364;-1.504;2022-08-21T14:52:10;24.10;92.10
24410;DHT22;12543;53.364;-1.504;2022-08-21T14:54:37;24.10;92.80
24410;DHT22;12543;53.364;-1.504;2022-08-21T14:57:10;24.00;92.90
24410;DHT22;12543;53.364;-1.504;2022-08-21T14:59:39;24.00;92.00
24410;DHT22;12543;53.364;-1.504;2022-08-21T15:02:08;23.90;92.80
24410;DHT22;12543;53.364;-1.504;2022-08-21T15:04:35;23.90;93.20
24410;DHT22;12543;53.364;-1.504;2022-08-21T15:07:03;23.80;92.00
24410;DHT22;12543;53.364;-1.504;2022-08-21T15:09:30;23.80;92.80
24410;DHT22;12543;53.364;-1.504;2022-08-21T15:11:58;23.80;92.50
24410;DHT22;12543;53.364;-1.504;2022-08-21T15:14:29;23.70;92.80
24410;DHT22;12543;53.364;-1.504;2022-08-21T15:16:57;23.70;92.90
24410;DHT22;12543;53.364;-1.504;2022-08-21T15:19:24;23.70;92.80
24410;DHT22;12543;53.364;-1.504;2022-08-21T15:21:52;23.60;93.20
24410;DHT22;12543;53.364;-1.504;2022-08-21T15:24:19;23.60;93.20
24410;DHT22;12543;53.364;-1.504;2022-08-21T15:26:46;23.60;92.80
24410;DHT22;12543;53.364;-1.504;2022-08-21T15:29:14;23.50;93.40
24410;DHT22;12543;53.364;-1.504;2022-08-21T15:32:15;23.50;93.40
24410;DHT22;12543;53.364;-1.504;2022-08-21T15:34:43;23.50;93.70
24410;DHT22;12543;53.364;-1.504;2022-08-21T15:37:10;23.50;93.50
24410;DHT22;12543;53.364;-1.504;2022-08-21T15:39:37;23.50;93.80
24410;DHT22;12543;53.364;-1.504;2022-08-21T15:42:07;23.40;93.70
24410;DHT22;12543;53.364;-1.504;2022-08-21T15:44:38;23.40;93.80
24410;DHT22;12543;53.364;-1.504;2022-08-21T15:47:10;23.30;93.80
24410;DHT22;12543;53.364;-1.504;2022-08-21T15:49:37;23.30;93.70
24410;DHT22;12543;53.364;-1.504;2022-08-21T15:52:04;23.30;93.60
24410;DHT22;12543;53.364;-1.504;2022-08-21T15:54:31;23.20;94.10
24410;DHT22;12543;53.364;-1.504;2022-08-21T15:56:58;23.10;94.00
24410;DHT22;12543;53.364;-1.504;2022-08-21T15:59:26;23.10;94.00
24410;DHT22;12543;53.364;-1.504;2022-08-21T16:01:53;23.00;94.30
24410;DHT22;12543;53.364;-1.504;2022-08-21T16:04:27;22.90;94.00
24410;DHT22;12543;53.364;-1.504;2022-08-21T16:06:54;22.90;94.40
24410;DHT22;12543;53.364;-1.504;2022-08-21T16:09:31;22.80;94.40
24410;DHT22;12543;53.364;-1.504;2022-08-21T16:12:02;22.70;94.30
24410;DHT22;12543;53.364;-1.504;2022-08-21T16:14:30;22.70;93.70
24410;DHT22;12543;53.364;-1.504;2022-08-21T16:16:58;22.70;94.40
24410;DHT22;12543;53.364;-1.504;2022-08-21T16:19:26;22.70;94.00
24410;DHT22;12543;53.364;-1.504;2022-08-21T16:21:54;22.60;94.30
24410;DHT22;12543;53.364;-1.504;2022-08-21T16:24:21;22.60;94.40
24410;DHT22;12543;53.364;-1.504;2022-08-21T16:26:48;22.60;94.40
24410;DHT22;12543;53.364;-1.504;2022-08-21T16:29:26;22.60;94.70
24410;DHT22;12543;53.364;-1.504;2022-08-21T16:31:55;22.60;94.60
24410;DHT22;12543;53.364;-1.504;2022-08-21T16:34:22;22.60;94.50
24410;DHT22;12543;53.364;-1.504;2022-08-21T16:36:49;22.60;94.00
24410;DHT22;12543;53.364;-1.504;2022-08-21T16:39:16;22.60;94.10
24410;DHT22;12543;53.364;-1.504;2022-08-21T16:41:45;22.60;94.30
24410;DHT22;12543;53.364;-1.504;2022-08-21T16:44:15;22.50;94.60
24410;DHT22;12543;53.364;-1.504;2022-08-21T16:46:42;22.50;94.50
24410;DHT22;12543;53.364;-1.504;2022-08-21T16:49:09;22.50;94.70
24410;DHT22;12543;53.364;-1.504;2022-08-21T16:51:37;22.50;94.60
24410;DHT22;12543;53.364;-1.504;2022-08-21T16:54:04;22.50;94.90
24410;DHT22;12543;53.364;-1.504;2022-08-21T16:56:31;22.40;94.60
24410;DHT22;12543;53.364;-1.504;2022-08-21T16:58:59;22.40;94.70
24410;DHT22;12543;53.364;-1.504;2022-08-21T17:01:28;22.40;94.90
24410;DHT22;12543;53.364;-1.504;2022-08-21T17:03:57;22.30;94.80
24410;DHT22;12543;53.364;-1.504;2022-08-21T17:06:24;22.30;94.90
24410;DHT22;12543;53.364;-1.504;2022-08-21T17:08:55;22.20;95.10
24410;DHT22;12543;53.364;-1.504;2022-08-21T17:11:40;22.20;95.20
24410;DHT22;12543;53.364;-1.504;2022-08-21T17:14:14;22.10;95.10
24410;DHT22;12543;53.364;-1.504;2022-08-21T17:16:45;22.10;95.30